Pagina principale
METAR-TAF:

METAR-TAF

Aeroporti :

Aeroporto di Milano-Malpensa

Milano, Italia

latitudine: 45-37N, longitudine: 008-44E, altezza: 234 m

Osservazione

Il bollettino è stato emesso 33 minuti fa, alle 19:20 UTC
Vento 8 kt da sud/sud-ovest
Temperature 26°C
Umidità 45%
Pressione 1012 hPa
Visibilità 10 km o più
nessuna nube inferiore a 1500 m e nessun cumulonembo

METAR: LIMC 191920Z 20008KT CAVOK 26/13 Q1012 NOSIG

Ora: 21:53 (19:53 UTC)

Previsione

Il bollettino è stato emesso 2 ore e 53 minuti fa, alle 17:00 UTC
Previsione valida dal 19 alle 18 UTC al 20 alle 24 UTC
Vento 5 kt da direzioni variabili
Visibilità 10 km o più
Nubi sparse ad un'altezza di 6000 ft
Probabilità 40% :
Temporaneamente
dal 20 alle 12 UTC al 20 alle 18 UTC
temporale, pioggia

TAF: LIMC 191700Z 1918/2024 VRB05KT 9999 SCT060 PROB40 TEMPO 2012/2018 TSRA

Osservazioni e previsioni meteorologiche di più di 4000 aeroporti (messaggi METAR e TAF).

Le stazioni disponibili sono rappresentate dai dischi gialli e rossi sulla carta.

Puntare il mouse per vedere il nome della stazione.

Clicca sopra per visualizzare le osservazioni e previsioni meteorologiche.

Per cambiare la mappa : fare clic sui pulsanti verdi con una croce nera per ingrandire, il pulsante verde con un trattino per diminuire, o sulla freccia verde per le mappe adiacenti.


METAR-TAF: